Tiempo atmosférico en la estación meteorológica de Ainsa, Huesca (610 m.)



Fecha
DESCASC
Temp. máxima en grados centígrados (hora)
DESCASC
Temp. mínima en grados centígrados (hora)
DESCASC
Temp. media en grados centígrados
DESCASC
Racha de viento máxima en m/sg (hora)
DESCASC
Velocidad máxima media en intervalos de 10 minutos(hora)
DESCASC
Precipitaciones diarias en mm
DESCASC
Precipitaciones de 00:00 a 06:00 en mm
DESCASC
Precipitaciones de 06:00 a 12:00 en mm
DESCASC
Precipitaciones de 12:00 a 18:00 en mm
DESCASC
Precipitaciones de 18:00 a 24:00 en mm
DESCASC
18-08-2019 36.6 (18:10) 18.7 (07:40) 27.6 11.94 (16:10) 7.5 (15:40) 0 0 0 0 0
17-08-2019 35.5 (15:10) 16.6 (07:30) 26.1 11.67 (17:50) 8.33 (17:50) 0 0 0 0 0
16-08-2019 32.1 (14:50) 14 (07:40) 23 10 (18:10) 7.5 (18:00) 0 0 0 0 0
15-08-2019 33.8 (17:00) 16.1 (00:00) 24.9 11.39 (16:00) 8.06 (16:00) 0 0 0 0 0
14-08-2019 33.1 (18:20) 12.3 (00:00) 22.7 10.56 (18:10) 7.78 (18:50) 0 0 0 0 0
13-08-2019 28.4 (16:40) 14.1 (00:00) 21.3 9.72 (17:20) 7.22 (17:20) 0 0 0 0 0
12-08-2019 29.7 (16:10) 17.6 (00:00) 23.7 10 (17:20) 7.5 (13:40) 0 0 0 0 0
11-08-2019 32.7 (17:00) 22.2 (00:00) 27.5 10 (16:00) 6.39 (16:50) 0 0 0 0 0
10-08-2019 34.2 (17:30) 19.8 (00:00) 27 12.22 (16:00) 8.61 (16:00) 0 0 0 0 0
09-08-2019 36.5 (16:50) 19.9 (00:00) 28.2 12.22 (21:20) 7.22 (15:10) 0 0 0 0 0
08-08-2019 33.6 (16:00) 18.1 (00:00) 25.8 8.61 (17:50) 6.94 (18:00) 0 0 0 0 0
07-08-2019 30.1 (12:10) 19.5 (00:00) 24.8 11.67 (15:30) 7.5 (15:20) 0.4 0 0 0.4 0
06-08-2019 34.8 (15:00) 19.3 (00:00) 27 9.17 (16:20) 6.94 (16:10) 0 0 0 0 0
05-08-2019 34.8 (17:40) 19 (00:00) 26.9 11.11 (16:50) 8.33 (16:00) 0 0 0 0 0
04-08-2019 35.3 (14:20) 18 (00:00) 26.6 12.78 (16:30) 9.17 (16:30) 0 0 0 0 0
03-08-2019 35.1 (15:20) 16.9 (00:00) 26 11.11 (18:40) 7.78 (18:50) 0 0 0 0 0
02-08-2019 35.2 (16:50) 16.6 (00:00) 25.9 11.39 (15:00) 7.5 (19:20) 0.2 0.2 0 0 0
01-08-2019 32.6 (15:30) 16.6 (00:00) 24.6 8.06 (16:10) 5.56 (16:00) 0.8 0.8 0 0 0
31-07-2019 29.6 (14:30) 13 (00:00) 21.3 9.72 (15:50) 6.94 (15:50) 0 0 0 0 0
30-07-2019 30.7 (17:00) 18.5 (00:00) 24.6 13.33 (15:50) 8.06 (12:50) 0 0 0 0 0
29-07-2019 31.5 (17:10) 13.2 (00:00) 22.3 8.61 (16:20) 6.39 (16:20) 0 0 0 0 0
28-07-2019 28.2 (15:20) 13.4 (00:00) 20.8 9.72 (17:40) 7.22 (17:40) 0 0 0 0 0
27-07-2019 23 (16:10) 16.3 (00:00) 19.6 10.56 (20:00) 7.78 (20:00) 13.8 0 13.8 0 0
26-07-2019 29.4 (15:30) 21.1 (00:00) 25.3 9.44 (17:10) 6.94 (16:30) 0 0 0 0 0
25-07-2019 37.3 (16:20) 18.6 (00:00) 27.9 15 (20:10) 9.44 (20:10) 0 0 0 0 0
24-07-2019 38.6 (16:50) 19.4 (00:00) 29 10.28 (16:00) 6.39 (15:30) 0 0 0 0 0

Gráficas

Temp. máximas Temp. mínimas Temp. medias Precipitaciones Rachas de viento máximas Velocidades máximas media en intervalos de 10 minutos

Datos horarios

Fecha y hora oficial Temperatura (ºC) Velocidad del viento (km/h) Dirección del viento Racha (km/h) Dirección de racha Precipitación (mm) Presión (hPa) Tendencia (hPa) Humedad (%)
2019-08-22 23:00:00 20.8 7 Noroeste 12 Noroeste 0 -- -- 70
2019-08-22 22:00:00 23.1 2 Nordeste 18 Sudeste 0 -- -- 61
2019-08-22 21:00:00 24.2 16 Sudeste 23 Sudeste 0 -- -- 55
2019-08-22 20:00:00 25.9 19 Sudeste 27 Sudeste 0 -- -- 51
2019-08-22 19:00:00 27.3 19 Sudeste 29 Sudeste 0 -- -- 46
2019-08-22 18:00:00 27.8 24 Sudeste 31 Sudeste 0 -- -- 46
2019-08-22 17:00:00 28.1 21 Sudeste 32 Sudeste 0 -- -- 48
2019-08-22 16:00:00 28.1 23 Sudeste 33 Sudeste 0 -- -- 51
2019-08-22 15:00:00 27.9 24 Sudeste 32 Sudeste 0 -- -- 54
2019-08-22 14:00:00 27.6 21 Sudeste 30 Sudeste 0 -- -- 56
2019-08-22 13:00:00 27.3 14 Sudeste 22 Sudeste 0 -- -- 53
2019-08-22 12:00:00 25.8 10 Sudeste 16 Este 0 -- -- 58
2019-08-22 11:00:00 23.2 3 Sur 10 Este 0 -- -- 63
2019-08-22 10:00:00 19.9 0 Calma 10 Norte 0 -- -- 76
2019-08-22 09:00:00 17.3 3 Noroeste 15 Norte 0 -- -- 85
2019-08-22 08:00:00 15.4 6 Noroeste 12 Noroeste 0 -- -- 93
2019-08-22 07:00:00 15.7 7 Noroeste 13 Noroeste 0 -- -- 92
2019-08-22 06:00:00 16.2 7 Noroeste 12 Norte 0 -- -- 91
2019-08-22 05:00:00 16.7 6 Noroeste 11 Norte 0 -- -- 91
2019-08-22 04:00:00 17.4 4 Noroeste 11 Noroeste 0 -- -- 88
2019-08-22 03:00:00 17.9 4 Noroeste 9 Noroeste 0 -- -- 87
2019-08-22 02:00:00 18.7 7 Oeste 9 Noroeste 0 -- -- 85
2019-08-22 01:00:00 19.4 5 Oeste 13 Noroeste 0 -- -- 83
2019-08-22 00:00:00 19.8 9 Noroeste 13 Noroeste 0 -- -- 82
2019-08-21 23:00:00 20.9 8 Norte 9 Norte 0 -- -- 76
2019-08-21 22:00:00 21.9 4 Sur 10 Sudeste 0 -- -- 72
2019-08-21 21:00:00 22.7 8 Sudeste 24 Sudeste 0 -- -- 68
2019-08-21 20:00:00 23.4 18 Sudeste 36 Sur 0 -- -- 66
2019-08-21 19:00:00 24.9 23 Sur 33 Sur 0 -- -- 60
2019-08-21 18:00:00 26.2 22 Sudeste 31 Sudeste 0 -- -- 58
2019-08-21 17:00:00 28.6 12 Sudeste 20 Sudeste 0 -- -- 47
2019-08-21 16:00:00 28.3 13 Sudeste 19 Sudeste 0 -- -- 51
2019-08-21 15:00:00 26.7 4 Nordeste 15 Sur 0 -- -- 55
2019-08-21 14:00:00 25.5 6 Este 15 Sudeste 0 -- -- 58
2019-08-21 13:00:00 25.1 7 Sudeste 17 Sudeste 0 -- -- 57
2019-08-21 12:00:00 23.7 9 Sudeste 15 Sudeste 0 -- -- 60
2019-08-21 11:00:00 21.9 5 Sudeste 11 Norte 0 -- -- 64
2019-08-21 10:00:00 18.6 5 Norte 14 Norte 0 -- -- 72
2019-08-21 09:00:00 15.4 6 Norte 12 Norte 0 -- -- 86
2019-08-21 08:00:00 14.8 8 Noroeste 17 Noroeste 0 -- -- 88
2019-08-21 07:00:00 14.4 13 Norte 19 Norte 0 -- -- 89
2019-08-21 06:00:00 14.7 14 Norte 20 Norte 0 -- -- 86
2019-08-21 05:00:00 15.3 16 Norte 19 Norte 0 -- -- 83
2019-08-21 04:00:00 15.7 13 Norte 18 Norte 0 -- -- 84
2019-08-21 03:00:00 16.7 17 Norte 19 Norte 0 -- -- 78
2019-08-21 02:00:00 18.1 10 Norte 14 Norte 0 -- -- 85
2019-08-21 01:00:00 18.5 0 Calma 10 Sudeste 0 -- -- 92
2019-08-21 00:00:00 18.6 8 Sudeste 15 Sudeste 0 -- -- 90
2019-08-20 23:00:00 18.7 13 Sudeste 19 Sudeste 0 -- -- 89
2019-08-20 22:00:00 19.1 9 Sudeste 17 Sudeste 0 -- -- 87
2019-08-20 21:00:00 19.9 14 Sudeste 23 Sudeste 0 -- -- 84
2019-08-20 20:00:00 21.1 18 Sudeste 30 Sudeste 0 -- -- 79
2019-08-20 19:00:00 22.5 23 Sudeste 29 Sudeste 0 -- -- 72
2019-08-20 18:00:00 23.5 14 Sudeste 29 Sudeste 0 -- -- 66
2019-08-20 17:00:00 23.8 19 Sudeste 29 Sudeste 0 -- -- 61
2019-08-20 16:00:00 23.6 13 Sudeste 21 Sudeste 0 -- -- 61
2019-08-20 15:00:00 22.6 12 Sudeste 20 Sudeste 0 -- -- 67
2019-08-20 14:00:00 21.2 14 Sudeste 21 Sudeste 0 -- -- 76
2019-08-20 13:00:00 19.3 9 Este 15 Este 0 -- -- 93
2019-08-20 12:00:00 16.9 12 Oeste 28 Sudoeste 0.6 -- -- 98
2019-08-20 11:00:00 16.3 4 Oeste 14 Norte 1.8 -- -- 98
2019-08-20 10:00:00 16.4 4 Norte 20 Sudoeste 0.4 -- -- 98
2019-08-20 09:00:00 16.2 3 Este 18 Oeste 2.2 -- -- 100
2019-08-20 08:00:00 16 12 Oeste 17 Oeste 4.6 -- -- 100
2019-08-20 07:00:00 16 6 Sudeste 18 Sudeste 4 -- -- 100
2019-08-20 06:00:00 16 12 Sudeste 21 Oeste 4.6 -- -- 99
2019-08-20 05:00:00 16.1 17 Oeste 23 Oeste 4.2 -- -- 99
2019-08-20 04:00:00 16.2 13 Oeste 17 Sudoeste 10.8 -- -- 98
2019-08-20 03:00:00 16.5 8 Oeste 21 Oeste 11.4 -- -- 97
2019-08-20 02:00:00 17.5 5 Oeste 27 Noroeste 1.6 -- -- 89
2019-08-20 01:00:00 17.5 18 Oeste 24 Oeste 1.8 -- -- 95
2019-08-20 00:00:00 17.6 14 Oeste 18 Oeste 1.4 -- -- 96
2019-08-19 23:00:00 17.9 9 Oeste 20 Oeste 2 -- -- 89
2019-08-19 22:00:00 20.1 17 Noroeste 23 Noroeste 1.6 -- -- 89
2019-08-19 21:00:00 22 3 Norte 24 Norte 0 -- -- 77
2019-08-19 20:00:00 23.6 20 Norte 24 Norte 0 -- -- 71
2019-08-19 19:00:00 26.3 5 Sudeste 13 Sudoeste 0 -- -- 57
2019-08-19 18:00:00 26.7 8 Sur 19 Sur 0 -- -- 55
2019-08-19 17:00:00 27.2 16 Sudeste 23 Sudeste 0 -- -- 52
2019-08-19 16:00:00 27.4 15 Sudeste 25 Sudeste 0 -- -- 51
2019-08-19 15:00:00 26.6 15 Sudeste 28 Sudeste 0 -- -- 53
2019-08-19 14:00:00 26.3 21 Sudeste 30 Sudeste 0 -- -- 57
2019-08-19 13:00:00 25.5 12 Sudeste 22 Sudeste 0 -- -- 62
2019-08-19 12:00:00 24.3 12 Sudeste 21 Sudeste 0 -- -- 66
2019-08-19 11:00:00 23.2 10 Sudeste 14 Sudeste 0 -- -- 70
2019-08-19 10:00:00 22.5 3 Sudoeste 5 Sur 0 -- -- 70
2019-08-19 09:00:00 20.8 3 Oeste 5 Oeste 0 -- -- 75
2019-08-19 08:00:00 19 4 Noroeste 10 Oeste 0 -- -- 81
2019-08-19 07:00:00 18.8 9 Oeste 12 Oeste 0 -- -- 82
2019-08-19 06:00:00 19.6 6 Oeste 10 Oeste 0 -- -- 79
2019-08-19 05:00:00 19.9 6 Noroeste 13 Oeste 0 -- -- 78
2019-08-19 04:00:00 20.2 8 Noroeste 15 Oeste 0 -- -- 77
2019-08-19 03:00:00 21 9 Oeste 18 Oeste 0 -- -- 74
2019-08-19 02:00:00 21.9 8 Oeste 13 Oeste 0 -- -- 72
2019-08-19 01:00:00 23 6 Noroeste 25 Oeste 0 -- -- 66
2019-08-19 00:00:00 24.8 8 Oeste 17 Oeste 0 -- -- 61
2019-08-18 23:00:00 26.6 13 Este 22 Nordeste 0 -- -- 66
2019-08-18 22:00:00 28.4 15 Sur 28 Sur 0 -- -- 50
2019-08-18 21:00:00 30.1 12 Sudeste 31 Sur 0 -- -- 40
2019-08-18 20:00:00 32.7 18 Sur 39 Sur 0 -- -- 36
2019-08-18 19:00:00 35.2 20 Sur 33 Sur 0 -- -- 24
2019-08-18 18:00:00 36.5 22 Oeste 39 Sudoeste 0 -- -- 21
2019-08-18 17:00:00 34.3 18 Sur 43 Este 0 -- -- 22
2019-08-18 16:00:00 35.3 19 Este 41 Sudeste 0 -- -- 29
2019-08-18 15:00:00 34.6 18 Sudeste 30 Sudeste 0 -- -- 33
2019-08-18 14:00:00 33.9 14 Sudeste 23 Sudeste 0 -- -- 34
2019-08-18 13:00:00 32.2 13 Sudeste 21 Sudeste 0 -- -- 38
2019-08-18 12:00:00 30.6 12 Sudeste 21 Sudeste 0 -- -- 44
2019-08-18 11:00:00 28.1 5 Sur 12 Este 0 -- -- 53
2019-08-18 10:00:00 24.7 2 Sudoeste 8 Este 0 -- -- 61
2019-08-18 09:00:00 21.4 0 Calma 10 Norte 0 -- -- 72
2019-08-18 08:00:00 18.7 4 Noroeste 11 Noroeste 0 -- -- 81
2019-08-18 07:00:00 18.8 8 Oeste 11 Oeste 0 -- -- 78
2019-08-18 06:00:00 19.3 6 Noroeste 9 Noroeste 0 -- -- 78
2019-08-18 05:00:00 19.9 5 Noroeste 9 Oeste 0 -- -- 71
2019-08-18 04:00:00 20.9 5 Oeste 13 Oeste 0 -- -- 68
2019-08-18 03:00:00 21.4 6 Noroeste 12 Oeste 0 -- -- 67
2019-08-18 02:00:00 22.3 6 Oeste 15 Oeste 0 -- -- 65
2019-08-18 01:00:00 23.9 3 Noroeste 9 Norte 0 -- -- 69
2019-08-18 00:00:00 25.4 3 Este 10 Sudeste 0 -- -- 65
2019-08-17 23:00:00 26.4 9 Sudeste 12 Este 0 -- -- 65
2019-08-17 22:00:00 27.9 9 Sudeste 26 Sudeste 0 -- -- 57
2019-08-17 21:00:00 29.6 20 Sudeste 26 Sudeste 0 -- -- 46
2019-08-17 20:00:00 31.6 24 Sudeste 36 Sudeste 0 -- -- 41
2019-08-17 19:00:00 34.2 18 Sur 42 Sudeste 0 -- -- 30
2019-08-17 18:00:00 34.2 26 Sudeste 42 Sudeste 0 -- -- 34
2019-08-17 17:00:00 34.5 20 Sudeste 41 Este 0 -- -- 34
2019-08-17 16:00:00 34.8 17 Sudeste 33 Este 0 -- -- 33
2019-08-17 15:00:00 35 15 Sudeste 24 Sudeste 0 -- -- 28
2019-08-17 14:00:00 34.5 9 Sudeste 20 Sudeste 0 -- -- 27
2019-08-17 13:00:00 32.4 8 Sudeste 17 Sudoeste 0 -- -- 30
2019-08-17 12:00:00 30.2 9 Sudeste 14 Sudeste 0 -- -- 33
2019-08-17 11:00:00 26.6 6 Sudeste 11 Este 0 -- -- 38
2019-08-17 10:00:00 23.5 6 Sudeste 10 Sur 0 -- -- 45
2019-08-17 09:00:00 19.5 0 Calma 11 Noroeste 0 -- -- 54
2019-08-17 08:00:00 17 5 Oeste 11 Noroeste 0 -- -- 59
2019-08-17 07:00:00 17.3 0 Calma 11 Noroeste 0 -- -- 57
2019-08-17 06:00:00 17.4 7 Noroeste 15 Norte 0 -- -- 57
2019-08-17 05:00:00 18.3 10 Noroeste 15 Norte 0 -- -- 53
2019-08-17 04:00:00 19.1 9 Noroeste 16 Noroeste 0 -- -- 51
2019-08-17 03:00:00 19.2 10 Noroeste 14 Noroeste 0 -- -- 51
2019-08-17 02:00:00 19.6 7 Norte 13 Oeste 0 -- -- 49
2019-08-17 01:00:00 20.8 9 Oeste 16 Noroeste 0 -- -- 47
2019-08-17 00:00:00 21.7 6 Noroeste 13 Noroeste 0 -- -- 44
2019-08-16 23:00:00 23.4 5 Norte 11 Norte 0 -- -- 40
2019-08-16 22:00:00 25.3 5 Nordeste 11 Oeste 0 -- -- 37
2019-08-16 21:00:00 27.7 9 Sudeste 26 Sudeste 0 -- -- 32
2019-08-16 20:00:00 29.4 19 Sudeste 30 Sudeste 0 -- -- 31
2019-08-16 19:00:00 30.2 23 Sudeste 36 Sudeste 0 -- -- 31
2019-08-16 18:00:00 31.3 27 Sudeste 35 Este 0 -- -- 27
2019-08-16 17:00:00 31.3 23 Sudeste 35 Sudeste 0 -- -- 29
2019-08-16 16:00:00 31.7 21 Sudeste 34 Sudeste 0 -- -- 30
2019-08-16 15:00:00 31.2 20 Sudeste 28 Sudeste 0 -- -- 30
2019-08-16 14:00:00 31.1 10 Sudeste 21 Este 0 -- -- 27
2019-08-16 13:00:00 29.3 12 Sudeste 19 Sudeste 0 -- -- 31
2019-08-16 12:00:00 27.4 10 Sudeste 19 Sudeste 0 -- -- 45
2019-08-16 11:00:00 24.6 6 Sudeste 13 Sudeste 0 -- -- 49
2019-08-16 10:00:00 21.1 6 Este 10 Este 0 -- -- 48
2019-08-16 09:00:00 17.4 2 Noroeste 8 Norte 0 -- -- 59
2019-08-16 08:00:00 14.4 7 Noroeste 16 Norte 0 -- -- 69
2019-08-16 07:00:00 14.7 5 Noroeste 14 Noroeste 0 -- -- 67
2019-08-16 06:00:00 15.2 8 Noroeste 13 Noroeste 0 -- -- 65
2019-08-16 05:00:00 15.5 6 Noroeste 14 Noroeste 0 -- -- 64
2019-08-16 04:00:00 16 6 Noroeste 11 Noroeste 0 -- -- 60
2019-08-16 03:00:00 17.4 6 Noroeste 10 Noroeste 0 -- -- 57
2019-08-16 02:00:00 18.7 8 Noroeste 13 Oeste 0 -- -- 52
2019-08-16 01:00:00 19.9 11 Norte 14 Norte 0 -- -- 51
2019-08-16 00:00:00 21.9 9 Noroeste 13 Noroeste 0 -- -- 43
2019-08-15 23:00:00 24 2 Oeste 8 Sur 0 -- -- 38
2019-08-15 22:00:00 25.2 6 Oeste 17 Oeste 0 -- -- 34
2019-08-15 21:00:00 27.2 12 Oeste 23 Oeste 0 -- -- 34
2019-08-15 20:00:00 30.5 17 Oeste 27 Oeste 0 -- -- 29
2019-08-15 19:00:00 32.2 19 Oeste 40 Sudoeste 0 -- -- 22
2019-08-15 18:00:00 32.8 27 Sudoeste 40 Sudoeste 0 -- -- 23
2019-08-15 17:00:00 33.8 20 Sudoeste 40 Sudoeste 0 -- -- 23
2019-08-15 16:00:00 33.1 29 Sudoeste 41 Sudoeste 0 -- -- 23
2019-08-15 15:00:00 30.7 23 Sudeste 36 Sudeste 0 -- -- 39
2019-08-15 14:00:00 30.3 19 Sudeste 32 Sudeste 0 -- -- 43
2019-08-15 13:00:00 29.6 13 Sudeste 23 Sudeste 0 -- -- 42
2019-08-15 12:00:00 27.8 12 Este 21 Sudeste 0 -- -- 45
2019-08-15 11:00:00 24.8 14 Sudeste 19 Sudeste 0 -- -- 52
2019-08-15 10:00:00 22 9 Sudeste 12 Este 0 -- -- 54
2019-08-15 09:00:00 18 0 Calma 5 Este 0 -- -- 64
2019-08-15 08:00:00 16.8 5 Noroeste 17 Norte 0 -- -- 66
2019-08-15 07:00:00 16.7 3 Norte 15 Norte 0 -- -- 66
2019-08-15 06:00:00 17.2 14 Norte 17 Norte 0 -- -- 64
2019-08-15 05:00:00 17.5 10 Norte 16 Norte 0 -- -- 63
2019-08-15 04:00:00 18.7 10 Norte 17 Noroeste 0 -- -- 58
2019-08-15 03:00:00 19.1 6 Oeste 15 Norte 0 -- -- 58
2019-08-15 02:00:00 20.3 8 Norte 19 Norte 0 -- -- 53
2019-08-15 01:00:00 21.7 9 Norte 16 Norte 0 -- -- 49
2019-08-15 00:00:00 23.3 6 Noroeste 14 Oeste 0 -- -- 46
2019-08-14 23:00:00 24.9 9 Sudoeste 32 Oeste 0 -- -- 44
2019-08-14 22:00:00 26.4 19 Oeste 34 Oeste 0 -- -- 40
2019-08-14 21:00:00 28.2 10 Oeste 31 Oeste 0 -- -- 35
2019-08-14 20:00:00 30.9 20 Oeste 36 Sudoeste 0 -- -- 30
2019-08-14 19:00:00 32.2 27 Sudoeste 38 Sudoeste 0 -- -- 27
2019-08-14 18:00:00 33 16 Sudoeste 30 Sudoeste 0 -- -- 25
2019-08-14 17:00:00 32.6 10 Sudeste 27 Sudeste 0 -- -- 24
2019-08-14 16:00:00 31.4 19 Sudeste 33 Sudeste 0 -- -- 27
2019-08-14 15:00:00 30.9 16 Sudeste -- -- -- -- -- 26
2019-08-14 14:00:00 -- 17 Sudeste 27 Sudeste 0 -- -- --
2019-08-14 13:00:00 28.1 19 Sudeste 27 Sudeste 0 -- -- 30
2019-08-14 12:00:00 26 11 Sudeste 17 Sudeste 0 -- -- 33
2019-08-14 11:00:00 22.8 7 Sudeste 13 Este 0 -- -- 39
2019-08-14 10:00:00 19.2 5 Este 10 Este 0 -- -- 46
2019-08-14 09:00:00 15.4 2 Oeste 5 Noroeste 0 -- -- 59
2019-08-14 08:00:00 12.9 3 Oeste 13 Norte 0 -- -- 63
2019-08-14 07:00:00 12.7 11 Noroeste 17 Norte 0 -- -- 66
2019-08-14 06:00:00 13.6 8 Norte 14 Noroeste 0 -- -- 62
2019-08-14 05:00:00 14 10 Norte 14 Norte 0 -- -- 63
2019-08-14 04:00:00 14.4 8 Norte 13 Norte 0 -- -- 61
2019-08-14 03:00:00 15.6 3 Noroeste 17 Norte 0 -- -- 58
2019-08-14 02:00:00 17.3 5 Noroeste 14 Noroeste 0 -- -- 53
2019-08-14 01:00:00 18.1 8 Noroeste 15 Norte 0 -- -- 50
2019-08-14 00:00:00 19.4 12 Norte 15 Noroeste 0 -- -- 47
2019-08-13 23:00:00 20.4 8 Oeste 12 Oeste 0 -- -- 47
2019-08-13 22:00:00 22.4 6 Noroeste 19 Este 0 -- -- 40
2019-08-13 21:00:00 23.9 5 Nordeste 26 Sudeste 0 -- -- 37
2019-08-13 20:00:00 25.6 20 Sudeste 35 Sudeste 0 -- -- 34
2019-08-13 19:00:00 27 21 Sudeste 32 Sudeste 0 -- -- 31
2019-08-13 18:00:00 27.2 21 Sudeste 35 Sudeste 0 -- -- 32
2019-08-13 17:00:00 28.1 17 Sudeste 33 Sudeste 0 -- -- 31
2019-08-13 16:00:00 27.5 18 Sudeste 33 Sudeste 0 -- -- 34
2019-08-13 15:00:00 26.1 17 Sudeste 30 Sudeste 0 -- -- 38
2019-08-13 14:00:00 24.6 20 Sudeste 30 Sudeste 0 -- -- 41
2019-08-13 13:00:00 23.5 13 Sudeste 20 Sudeste 0 -- -- 44
2019-08-13 12:00:00 19.9 9 Sudeste 16 Sudeste 0 -- -- 53
2019-08-13 11:00:00 17.5 8 Sudeste 12 Este 0 -- -- 60
2019-08-13 10:00:00 16.1 5 Sudeste 8 Este 0 -- -- 65
2019-08-13 09:00:00 14.8 0 Calma 4 Oeste 0 -- -- 69
2019-08-13 08:00:00 14.2 0 Calma 3 Norte 0 -- -- 67
2019-08-13 07:00:00 14.3 0 Calma 3 Norte 0 -- -- 65
2019-08-13 06:00:00 14.8 0 Calma 7 Noroeste 0 -- -- 63
2019-08-13 05:00:00 15.2 2 Sudoeste 8 Este 0 -- -- 62
2019-08-13 04:00:00 15.7 2 Sudoeste 9 Oeste 0 -- -- 58
2019-08-13 03:00:00 16.4 8 Noroeste 13 Oeste 0 -- -- 55
2019-08-13 02:00:00 16.8 10 Oeste 16 Oeste 0 -- -- 54
2019-08-13 01:00:00 18 9 Oeste 18 Oeste 0 -- -- 51
2019-08-13 00:00:00 18.9 14 Oeste 27 Oeste 0 -- -- 48
2019-08-12 23:00:00 20.3 18 Oeste 31 Oeste 0 -- -- 45
2019-08-12 22:00:00 21.3 19 Oeste 29 Oeste 0 -- -- 43
2019-08-12 21:00:00 23.2 20 Oeste 31 Oeste 0 -- -- 39
2019-08-12 20:00:00 26.9 19 Oeste 30 Sudoeste 0 -- -- 34
2019-08-12 19:00:00 28.1 17 Sudoeste 33 Sudoeste 0 -- -- 31
2019-08-12 18:00:00 29.1 13 Sur 36 Este 0 -- -- 28
2019-08-12 17:00:00 29.6 15 Sudoeste 31 Sur 0 -- -- 28
2019-08-12 16:00:00 28.7 16 Sur 31 Sur 0 -- -- 28
2019-08-12 15:00:00 27.8 13 Sur 31 Sudeste 0 -- -- 30
2019-08-12 14:00:00 26.9 21 Sudeste 36 Sudeste 0 -- -- 40
2019-08-12 13:00:00 26.7 26 Sudeste 33 Sudeste 0 -- -- 43
2019-08-12 12:00:00 25.8 20 Sudeste 28 Sudeste 0 -- -- 46
2019-08-12 11:00:00 24.6 12 Sudeste 20 Sudeste 0 -- -- 47
2019-08-12 10:00:00 22.6 3 Sudoeste 16 Noroeste 0 -- -- 51
2019-08-12 09:00:00 20 11 Oeste 18 Oeste 0 -- -- 57
2019-08-12 08:00:00 17.8 10 Oeste 13 Oeste 0 -- -- 63
2019-08-12 07:00:00 17.8 5 Oeste 13 Oeste 0 -- -- 63
2019-08-12 06:00:00 18.6 11 Oeste 16 Oeste 0 -- -- 60
2019-08-12 05:00:00 19.6 9 Oeste 21 Oeste 0 -- -- 57
2019-08-12 04:00:00 20.3 5 Oeste 15 Sudeste 0 -- -- 55
2019-08-12 03:00:00 20.6 5 Este 12 Oeste 0 -- -- 54
2019-08-12 02:00:00 21.1 10 Oeste 17 Oeste 0 -- -- 52
2019-08-12 01:00:00 22 9 Sudoeste 14 Oeste 0 -- -- 50
2019-08-12 00:00:00 23.1 7 Oeste 18 Oeste 0 -- -- 47
2019-08-11 23:00:00 24.6 8 Sudoeste 18 Sudoeste 0 -- -- 43
2019-08-11 22:00:00 25.5 10 Oeste 14 Oeste 0 -- -- 36
2019-08-11 21:00:00 28.2 9 Oeste 10 Oeste 0 -- -- 33
2019-08-11 20:00:00 30 9 Oeste 21 Oeste 0 -- -- 30
2019-08-11 19:00:00 31.1 11 Oeste 22 Oeste 0 -- -- 30
2019-08-11 18:00:00 29.8 5 Norte 26 Sur 0 -- -- 33
2019-08-11 17:00:00 32.7 15 Sudoeste 34 Sudoeste 0 -- -- 30
2019-08-11 16:00:00 31.2 20 Sudoeste 36 Sudoeste 0 -- -- 34
2019-08-11 15:00:00 28.8 8 Sudeste 18 Sudeste 0 -- -- 49
2019-08-11 14:00:00 28 8 Sudeste 19 Sudeste 0 -- -- 54
2019-08-11 13:00:00 25.1 5 Norte 14 Oeste 0 -- -- 64
2019-08-11 12:00:00 23.1 4 Oeste 18 Oeste 0 -- -- 72
2019-08-11 11:00:00 23.4 10 Sur 28 Sudeste 0 -- -- 68
2019-08-11 10:00:00 25.8 15 Sudeste 28 Sudeste 0 -- -- 60
2019-08-11 09:00:00 23.2 13 Sudeste 15 Sudeste 0 -- -- 70
2019-08-11 08:00:00 22.5 6 Sur 9 Sudeste 0 -- -- 68
2019-08-11 07:00:00 22.3 3 Sudeste 10 Oeste 0 -- -- 60
2019-08-11 06:00:00 22.4 3 Norte 7 Noroeste 0 -- -- 55
2019-08-11 05:00:00 22.6 4 Oeste 10 Oeste 0 -- -- 51
2019-08-11 04:00:00 23 3 Oeste 8 Este 0 -- -- 58
2019-08-11 03:00:00 23 5 Este 15 Sudeste 0 -- -- 58
2019-08-11 02:00:00 23.6 4 Oeste 10 Oeste 0 -- -- 47
2019-08-11 01:00:00 23.7 8 Oeste 14 Oeste 0 -- -- 46
2019-08-11 00:00:00 24.3 10 Oeste 15 Oeste 0 -- -- 45
2019-08-10 23:00:00 26.6 3 Oeste 6 Oeste 0 -- -- 41
2019-08-10 22:00:00 27.4 4 Este 19 Sudeste 0 -- -- 42
2019-08-10 21:00:00 28.5 16 Sudeste 22 Sudeste 0 -- -- 41
2019-08-10 20:00:00 30.4 7 Sudoeste 16 Sudoeste 0 -- -- 31
2019-08-10 19:00:00 31.3 8 Oeste 24 Noroeste 0 -- -- 28
2019-08-10 18:00:00 33.2 13 Sudoeste 34 Sudoeste 0 -- -- 25
2019-08-10 17:00:00 32 20 Sur 43 Sur 0 -- -- 30
2019-08-10 16:00:00 32.4 31 Sudeste 44 Sudeste 0 -- -- 30
2019-08-10 15:00:00 32.8 23 Sudeste 42 Sudeste 0 -- -- 29
2019-08-10 14:00:00 31.3 27 Sudeste 36 Sudeste 0 -- -- 33
2019-08-10 13:00:00 30.8 24 Sudeste 35 Sudeste 0 -- -- 34
2019-08-10 12:00:00 29.9 19 Sudeste 30 Sudeste 0 -- -- 40
2019-08-10 11:00:00 28.1 15 Sudeste 22 Sudeste 0 -- -- 47
2019-08-10 10:00:00 25.7 6 Sudeste 12 Sudeste 0 -- -- 52
2019-08-10 09:00:00 22.3 2 Oeste 5 Noroeste 0 -- -- 64
2019-08-10 08:00:00 19.9 0 Calma 8 Norte 0 -- -- 69
2019-08-10 07:00:00 19.9 8 Norte 12 Oeste 0 -- -- 70
2019-08-10 06:00:00 21.2 11 Oeste 13 Oeste 0 -- -- 64
2019-08-10 05:00:00 22.3 3 Oeste 7 Sudeste 0 -- -- 62
2019-08-10 04:00:00 23 5 Sudeste 6 Sudeste 0 -- -- 61
2019-08-10 03:00:00 23.9 4 Sur 13 Sudoeste 0 -- -- 56
2019-08-10 02:00:00 24.7 6 Oeste 26 Sudoeste 0 -- -- 55
2019-08-10 01:00:00 25.5 9 Sudoeste 31 Noroeste 0 -- -- 57
2019-08-10 00:00:00 27.3 10 Oeste 29 Sudoeste 0 -- -- 51
2019-08-09 23:00:00 28.3 15 Sudoeste 20 Sudoeste 0 -- -- 44
2019-08-09 22:00:00 30.5 8 Oeste 44 Sudoeste 0 -- -- 39
2019-08-09 21:00:00 32.2 19 Sudoeste 28 Sudoeste 0 -- -- 34
2019-08-09 20:00:00 33.4 15 Sur 25 Sur 0 -- -- 32
2019-08-09 19:00:00 35.4 17 Sur 34 Sur 0 -- -- 29
2019-08-09 18:00:00 36.1 21 Sur 37 Sudoeste 0 -- -- 27
2019-08-09 17:00:00 36.5 19 Sur 35 Sudeste 0 -- -- 26
2019-08-09 16:00:00 35.9 24 Sudeste 40 Sudeste 0 -- -- 28
2019-08-09 15:00:00 36 24 Este 36 Sudeste 0 -- -- 28
2019-08-09 14:00:00 35.1 17 Este 31 Este 0 -- -- 30
2019-08-09 13:00:00 33.8 17 Sudeste 24 Sudeste 0 -- -- 33
2019-08-09 12:00:00 32.3 13 Sudeste 17 Sudeste 0 -- -- 40
2019-08-09 11:00:00 29.9 7 Sudeste 15 Sudeste 0 -- -- 45
2019-08-09 10:00:00 26.1 6 Sudeste 12 Sudeste 0 -- -- 54
2019-08-09 09:00:00 22.8 0 Calma 8 Oeste 0 -- -- 65
2019-08-09 08:00:00 20.1 6 Oeste 14 Norte 0 -- -- 71
2019-08-09 07:00:00 20.3 5 Oeste 7 Noroeste 0 -- -- 69
2019-08-09 06:00:00 20.9 4 Noroeste 12 Noroeste 0 -- -- 67
2019-08-09 05:00:00 21.6 5 Noroeste 12 Noroeste 0 -- -- 65
2019-08-09 04:00:00 22.2 8 Noroeste 12 Noroeste 0 -- -- 62
2019-08-09 03:00:00 23.2 7 Noroeste 12 Noroeste 0 -- -- 58
2019-08-09 02:00:00 23 7 Oeste 14 Norte 0 -- -- 59
2019-08-09 01:00:00 23.3 7 Oeste 10 Noroeste 0 -- -- 58
2019-08-09 00:00:00 24.3 8 Noroeste 13 Noroeste 0 -- -- 55
2019-08-08 23:00:00 25.4 12 Noroeste 15 Oeste 0 -- -- 52
2019-08-08 22:00:00 27.9 8 Oeste 14 Sudeste 0 -- -- 46
2019-08-08 21:00:00 29.3 13 Sudeste 24 Sudeste 0 -- -- 44
2019-08-08 20:00:00 30.9 18 Sudeste 26 Sudeste 0 -- -- 40
2019-08-08 19:00:00 31.2 19 Sudeste 30 Sudeste 0 -- -- 40
2019-08-08 18:00:00 31.9 25 Sudeste 31 Sudeste 0 -- -- 40
2019-08-08 17:00:00 32.7 17 Sudeste 26 Sudeste 0 -- -- 37
2019-08-08 16:00:00 33.6 13 Sudeste 26 Sudeste 0 -- -- 38
2019-08-08 15:00:00 31.2 13 Sudeste 26 Sudeste 0 -- -- 41
2019-08-08 14:00:00 31.1 13 Sudeste 23 Sudeste 0 -- -- 41
2019-08-08 13:00:00 31.3 14 Sudeste 20 Sudeste 0 -- -- 40
2019-08-08 12:00:00 28.9 13 Sudeste 19 Sudeste 0 -- -- 49
2019-08-08 11:00:00 26.6 8 Sudeste 14 Sudeste 0 -- -- 58
2019-08-08 10:00:00 23.9 4 Sur 10 Sudeste 0 -- -- 72
2019-08-08 09:00:00 20.6 3 Sur 8 Este 0 -- -- 85
2019-08-08 08:00:00 18.3 2 Este 9 Oeste 0 -- -- 92
2019-08-08 07:00:00 18.2 6 Oeste 9 Oeste 0 -- -- 91
2019-08-08 06:00:00 18.4 4 Noroeste 11 Noroeste 0 -- -- 91
2019-08-08 05:00:00 18.7 5 Oeste 8 Oeste 0 -- -- 91
2019-08-08 04:00:00 18.8 3 Noroeste 6 Noroeste 0 -- -- 92
2019-08-08 03:00:00 19 3 Este 9 Oeste 0 -- -- 93
2019-08-08 02:00:00 19.1 6 Oeste 8 Oeste 0 -- -- 90
2019-08-08 01:00:00 19.2 7 Noroeste 8 Noroeste 0 -- -- 94
2019-08-08 00:00:00 19.6 4 Este 12 Sudeste 0 -- -- 94
2019-08-07 23:00:00 20.1 4 Sudeste 6 Sudeste 0 -- -- 89
2019-08-07 22:00:00 20.5 5 Noroeste 9 Sudeste 0 -- -- 86
2019-08-07 21:00:00 21.2 5 Sudeste 8 Sudoeste 0 -- -- 83
2019-08-07 20:00:00 21.1 5 Oeste 14 Sudoeste 0 -- -- 82
2019-08-07 19:00:00 20.6 8 Sudeste 15 Sudeste 0 -- -- 85
2019-08-07 18:00:00 21.5 7 Oeste 17 Sudeste 0 -- -- 78
2019-08-07 17:00:00 21.1 11 Sudeste 34 Sudeste 0.2 -- -- 84
2019-08-07 16:00:00 21.4 19 Sur 42 Este 0 -- -- 83
2019-08-07 15:00:00 23.8 8 Este 38 Sudoeste 0.2 -- -- 78
2019-08-07 14:00:00 29 10 Sudeste 16 Este 0 -- -- 50
2019-08-07 13:00:00 28.4 13 Sudeste 20 Este 0 -- -- 53
2019-08-07 12:00:00 29.8 10 Sudeste 18 Este 0 -- -- 51
2019-08-07 11:00:00 27 8 Sudeste 13 Sudeste 0 -- -- 59
2019-08-07 10:00:00 25.3 5 Sudeste 12 Sudeste 0 -- -- 63
2019-08-07 09:00:00 22.8 5 Norte 9 Norte 0 -- -- 62
2019-08-07 08:00:00 20.6 2 Sur 14 Nordeste 0 -- -- 67
2019-08-07 07:00:00 20.4 7 Noroeste 10 Oeste 0 -- -- 65
2019-08-07 06:00:00 20.8 3 Noroeste 9 Sudoeste 0 -- -- 66
2019-08-07 05:00:00 21.3 0 Calma 11 Norte 0 -- -- 63
2019-08-07 04:00:00 22.1 12 Norte 16 Norte 0 -- -- 60
2019-08-07 03:00:00 22.3 6 Noroeste 12 Oeste 0 -- -- 58
2019-08-07 02:00:00 22.7 10 Oeste 14 Oeste 0 -- -- 55
2019-08-07 01:00:00 23.4 8 Noroeste 13 Norte 0 -- -- 54
2019-08-07 00:00:00 24.5 10 Noroeste 13 Oeste 0 -- -- 51
2019-08-06 23:00:00 26.2 5 Noroeste 10 Norte 0 -- -- 51
2019-08-06 22:00:00 28.5 5 Sudoeste 13 Sudeste 0 -- -- 45
2019-08-06 21:00:00 30 8 Sudeste 16 Sudeste 0 -- -- 44
2019-08-06 20:00:00 30.9 14 Sudeste 24 Sudeste 0 -- -- 43
2019-08-06 19:00:00 31.8 18 Sudeste 29 Sudeste 0 -- -- 41
2019-08-06 18:00:00 33.3 20 Sudeste 33 Sudeste 0 -- -- 38
2019-08-06 17:00:00 33.9 16 Sur 33 Sudeste 0 -- -- 37
2019-08-06 16:00:00 33.7 18 Sudeste 31 Sudeste 0 -- -- 36
2019-08-06 15:00:00 34.8 19 Sudeste 28 Sudeste 0 -- -- 33
2019-08-06 14:00:00 33.8 14 Sudeste 26 Sudeste 0 -- -- 35
2019-08-06 13:00:00 32.8 14 Sudeste 21 Sudeste 0 -- -- 38
2019-08-06 12:00:00 31.1 10 Sudeste 17 Sudeste 0 -- -- 41
2019-08-06 11:00:00 28.7 7 Sudeste 13 Sudeste 0 -- -- 47
2019-08-06 10:00:00 25.4 2 Sudoeste 10 Norte 0 -- -- 55
2019-08-06 09:00:00 21.6 4 Noroeste 10 Norte 0 -- -- 67
2019-08-06 08:00:00 19.3 4 Noroeste 8 Noroeste 0 -- -- 75
2019-08-06 07:00:00 19.3 8 Oeste 12 Noroeste 0 -- -- 73
2019-08-06 06:00:00 19.7 10 Noroeste 13 Norte 0 -- -- 72
2019-08-06 05:00:00 20.9 5 Noroeste 10 Noroeste 0 -- -- 68
2019-08-06 04:00:00 21.6 4 Noroeste 9 Oeste 0 -- -- 65
2019-08-06 03:00:00 22.5 7 Oeste 12 Norte 0 -- -- 59
2019-08-06 02:00:00 22.7 9 Oeste 13 Oeste 0 -- -- 59
2019-08-06 01:00:00 23.7 8 Noroeste 14 Norte 0 -- -- 59
2019-08-06 00:00:00 25.3 9 Noroeste 12 Noroeste 0 -- -- 53
2019-08-05 23:00:00 27.6 7 Sudeste 14 Sudeste 0 -- -- 51
2019-08-05 22:00:00 28.8 10 Sudeste 15 Este 0 -- -- 45
2019-08-05 21:00:00 30.9 13 Sur 23 Sur 0 -- -- 37
2019-08-05 20:00:00 32.8 21 Sudeste 28 Sudeste 0 -- -- 33
2019-08-05 19:00:00 34 20 Sudeste 29 Sudeste 0 -- -- 30
2019-08-05 18:00:00 34.4 24 Sudeste 36 Sudeste 0 -- -- 31
2019-08-05 17:00:00 34 25 Sudeste 40 Sudeste 0 -- -- 36
2019-08-05 16:00:00 33.8 30 Sudeste 39 Sudeste 0 -- -- 36
2019-08-05 15:00:00 34.4 21 Sudeste 29 Sudeste 0 -- -- 33
2019-08-05 14:00:00 34.4 14 Sudeste 22 Este 0 -- -- 33
2019-08-05 13:00:00 32.8 10 Sudeste 22 Este 0 -- -- 40
2019-08-05 12:00:00 30.8 9 Sudeste 14 Sudeste 0 -- -- 43
2019-08-05 11:00:00 28.4 5 Sudoeste 12 Nordeste 0 -- -- 48
2019-08-05 10:00:00 24.9 2 Oeste 7 Norte 0 -- -- 55
2019-08-05 09:00:00 21.4 3 Oeste 10 Norte 0 -- -- 68
2019-08-05 08:00:00 19.3 6 Oeste 10 Oeste 0 -- -- 75
2019-08-05 07:00:00 19.1 7 Noroeste 11 Noroeste 0 -- -- 75
2019-08-05 06:00:00 20 4 Noroeste 9 Oeste 0 -- -- 72
2019-08-05 05:00:00 20.5 7 Noroeste 11 Noroeste 0 -- -- 69
2019-08-05 04:00:00 21.2 8 Oeste 10 Oeste 0 -- -- 66
2019-08-05 03:00:00 22.1 5 Oeste 11 Oeste 0 -- -- 62
2019-08-05 02:00:00 22.8 7 Noroeste 12 Oeste 0 -- -- 62
2019-08-05 01:00:00 23.9 9 Noroeste 14 Noroeste 0 -- -- 61
2019-08-05 00:00:00 25.8 8 Noroeste 10 Noroeste 0 -- -- 57
2019-08-04 23:00:00 27.3 4 Noroeste 13 Sur 0 -- -- 53
2019-08-04 22:00:00 28.5 14 Sur 23 Sur 0 -- -- 50
2019-08-04 21:00:00 30.5 14 Sudeste 30 Sur 0 -- -- 40
2019-08-04 20:00:00 32.6 23 Sudeste 37 Sudeste 0 -- -- 34
2019-08-04 19:00:00 34.1 22 Sudeste 37 Sudeste 0 -- -- 31
2019-08-04 18:00:00 34.3 26 Sudeste 42 Sudeste 0 -- -- 32
2019-08-04 17:00:00 34.3 30 Sudeste 46 Sudeste 0 -- -- 32
2019-08-04 16:00:00 35.2 27 Sudeste 42 Sudeste 0 -- -- 32
2019-08-04 15:00:00 35.1 22 Sudeste 32 Sudeste 0 -- -- 32
2019-08-04 14:00:00 34.2 15 Sudeste 21 Sudeste 0 -- -- 32
2019-08-04 13:00:00 33.1 12 Sudeste 20 Sudeste 0 -- -- 38
2019-08-04 12:00:00 31 8 Sudeste 13 Sudeste 0 -- -- 41
2019-08-04 11:00:00 28.4 3 Sudoeste 7 Sudoeste 0 -- -- 45
2019-08-04 10:00:00 25 5 Sur 9 Este 0 -- -- 54
2019-08-04 09:00:00 21.7 2 Sudoeste 8 Norte 0 -- -- 64
2019-08-04 08:00:00 18.6 7 Noroeste 10 Noroeste 0 -- -- 74
2019-08-04 07:00:00 18.2 5 Noroeste 12 Oeste 0 -- -- 75
2019-08-04 06:00:00 19.2 8 Oeste 11 Noroeste 0 -- -- 70
2019-08-04 05:00:00 20 8 Noroeste 12 Noroeste 0 -- -- 68
2019-08-04 04:00:00 20.7 6 Noroeste 11 Oeste 0 -- -- 65
2019-08-04 03:00:00 21.4 8 Noroeste 11 Noroeste 0 -- -- 62
2019-08-04 02:00:00 22.1 6 Noroeste 11 Oeste 0 -- -- 62
2019-08-04 01:00:00 23.1 7 Oeste 12 Oeste 0 -- -- 59
2019-08-04 00:00:00 24.8 5 Noroeste 9 Norte 0 -- -- 55
2019-08-03 23:00:00 26.9 3 Este 6 Sudeste 0 -- -- 51
2019-08-03 22:00:00 27.9 7 Sur 22 Sudeste 0 -- -- 47
2019-08-03 21:00:00 29.6 19 Sudeste 29 Sudeste 0 -- -- 41
2019-08-03 20:00:00 31.8 14 Sudeste 36 Sudeste 0 -- -- 35
2019-08-03 19:00:00 32.9 27 Sudeste 40 Sudeste 0 -- -- 32
2019-08-03 18:00:00 34.5 22 Sudeste 37 Sudeste 0 -- -- 30
2019-08-03 17:00:00 34.3 22 Sudeste 34 Sudeste 0 -- -- 30
2019-08-03 16:00:00 34.8 17 Sudeste 31 Sudeste 0 -- -- 30
2019-08-03 15:00:00 34.8 9 Sudeste 21 Sudeste 0 -- -- 29
2019-08-03 14:00:00 33.6 12 Sudeste 20 Sudeste 0 -- -- 29
2019-08-03 13:00:00 31.6 12 Sudeste 19 Sudeste 0 -- -- 34
2019-08-03 12:00:00 30.1 9 Sudeste 19 Sudeste 0 -- -- 40
2019-08-03 11:00:00 26.8 7 Sudeste 11 Este 0 -- -- 43
2019-08-03 10:00:00 23.8 4 Sudeste 11 Este 0 -- -- 51
2019-08-03 09:00:00 20.1 4 Noroeste 8 Nordeste 0 -- -- 60
2019-08-03 08:00:00 17.5 3 Noroeste 12 Norte 0 -- -- 66
2019-08-03 07:00:00 17.4 4 Noroeste 8 Noroeste 0 -- -- 65
2019-08-03 06:00:00 17.7 5 Oeste 12 Norte 0 -- -- 61
2019-08-03 05:00:00 17.9 6 Oeste 12 Noroeste 0 -- -- 61
2019-08-03 04:00:00 18.4 7 Oeste 9 Oeste 0 -- -- 58
2019-08-03 03:00:00 19 7 Oeste 12 Oeste 0 -- -- 55
2019-08-03 02:00:00 20.1 9 Noroeste 12 Oeste 0 -- -- 50
2019-08-03 01:00:00 22.1 7 Oeste 10 Sur 0 -- -- 45
2019-08-03 00:00:00 23.8 5 Nordeste 12 Sur 0 -- -- 42
2019-08-02 23:00:00 24.8 6 Noroeste 19 Oeste 0 -- -- 40
2019-08-02 22:00:00 27.9 5 Norte 13 Oeste 0 -- -- 32
2019-08-02 21:00:00 30.3 8 Oeste 30 Oeste 0 -- -- 27
2019-08-02 20:00:00 32.3 25 Oeste 36 Sudoeste 0 -- -- 24
2019-08-02 19:00:00 33.7 25 Sudoeste 37 Sudoeste 0 -- -- 23
2019-08-02 18:00:00 34.7 22 Sudoeste 40 Oeste 0 -- -- 22
2019-08-02 17:00:00 34.9 14 Sudoeste 32 Sudoeste 0 -- -- 23
2019-08-02 16:00:00 34.6 16 Sudoeste 37 Sudeste 0 -- -- 28
2019-08-02 15:00:00 32.8 22 Sudeste 41 Sudeste 0 -- -- 33
2019-08-02 14:00:00 31.6 19 Sudeste 31 Sudeste 0 -- -- 36
2019-08-02 13:00:00 29.8 18 Sudeste 26 Sudeste 0 -- -- 43
2019-08-02 12:00:00 27.9 14 Sudeste 19 Sudeste 0 -- -- 49
2019-08-02 11:00:00 25.6 8 Sudeste 12 Sudeste 0 -- -- 51
2019-08-02 10:00:00 22.5 2 Sudoeste 10 Norte 0 -- -- 62
2019-08-02 09:00:00 19 5 Norte 10 Norte 0 -- -- 74
2019-08-02 08:00:00 17.1 0 Calma 13 Norte 0 -- -- 84
2019-08-02 07:00:00 16.7 9 Norte 14 Noroeste 0 -- -- 84
2019-08-02 06:00:00 17.4 5 Noroeste 10 Noroeste 0 -- -- 82
2019-08-02 05:00:00 18.1 6 Noroeste 14 Noroeste 0 -- -- 85
2019-08-02 04:00:00 18.5 5 Oeste 13 Nordeste 0 -- -- 84
2019-08-02 03:00:00 19.3 3 Sudoeste 19 Noroeste 0 -- -- 81
2019-08-02 02:00:00 19.5 8 Oeste 22 Noroeste 0.2 -- -- 83
2019-08-02 01:00:00 21.4 11 Noroeste 15 Oeste 0 -- -- 64
2019-08-02 00:00:00 23.2 6 Noroeste 17 Noroeste 0 -- -- 57
2019-08-01 23:00:00 25.2 9 Norte 12 Norte 0 -- -- 46
2019-08-01 22:00:00 26.6 8 Sur 13 Sudeste 0 -- -- 47
2019-08-01 21:00:00 28.2 9 Sudeste 15 Sudeste 0 -- -- 40
2019-08-01 20:00:00 29.4 11 Sudeste 14 Sudeste 0 -- -- 39
2019-08-01 19:00:00 29.3 13 Sur 22 Sudeste 0 -- -- 38
2019-08-01 18:00:00 31.2 19 Sudeste 29 Sudeste 0 -- -- 35
2019-08-01 17:00:00 31.7 16 Sudeste 29 Sudeste 0 -- -- 33
2019-08-01 16:00:00 31.9 20 Sudeste 27 Sudeste 0 -- -- 30
2019-08-01 15:00:00 31.6 16 Sudeste 25 Sudeste 0 -- -- 32
2019-08-01 14:00:00 30.3 10 Sudeste 21 Sudeste 0 -- -- 37
2019-08-01 13:00:00 28.6 9 Sudeste 17 Sudeste 0 -- -- 44
2019-08-01 12:00:00 27.4 7 Sudeste 18 Sudeste 0 -- -- 51
2019-08-01 11:00:00 26.1 9 Sudeste 15 Este 0 -- -- 55
2019-08-01 10:00:00 23 5 Sur 11 Sudeste 0 -- -- 65
2019-08-01 09:00:00 19.6 2 Sudoeste 12 Norte 0 -- -- 79
2019-08-01 08:00:00 17.1 6 Norte 15 Noroeste 0 -- -- 88
2019-08-01 07:00:00 16.6 8 Oeste 10 Noroeste 0 -- -- 88
2019-08-01 06:00:00 17.1 6 Norte 8 Noroeste 0 -- -- 90
2019-08-01 05:00:00 17.5 6 Sur 10 Norte 0 -- -- 86
2019-08-01 04:00:00 17.5 6 Noroeste 15 Oeste 0 -- -- 86
2019-08-01 03:00:00 17.8 7 Nordeste 21 Sudoeste 0.8 -- -- 85
2019-08-01 02:00:00 19.6 5 Oeste 14 Oeste 0 -- -- 67
2019-08-01 01:00:00 20.2 7 Norte 16 Norte 0 -- -- 63
2019-08-01 00:00:00 21.2 6 Noroeste 10 Oeste 0 -- -- 59
2019-07-31 23:00:00 22.1 7 Noroeste 9 Noroeste 0 -- -- 57
2019-07-31 22:00:00 24.1 6 Sudeste 13 Sudeste 0 -- -- 55
2019-07-31 21:00:00 25.4 12 Sudeste 20 Sudeste 0 -- -- 48
2019-07-31 20:00:00 27 15 Sudeste 19 Sudeste 0 -- -- 47
2019-07-31 19:00:00 28.2 15 Sudeste 23 Sudeste 0 -- -- 43
2019-07-31 18:00:00 28.5 18 Sudeste 30 Sudeste 0 -- -- 39
2019-07-31 17:00:00 28.5 22 Sudeste 35 Sudeste 0 -- -- 39
2019-07-31 16:00:00 28.9 23 Sudeste 35 Sudeste 0 -- -- 35
2019-07-31 15:00:00 29.4 20 Sudeste 29 Sudeste 0 -- -- 33
2019-07-31 14:00:00 29 14 Sudeste 24 Sudeste 0 -- -- 31
2019-07-31 13:00:00 27.1 6 Sudeste 16 Sur 0 -- -- 35
2019-07-31 12:00:00 24.4 6 Sudeste 11 Sudeste 0 -- -- 40
2019-07-31 11:00:00 21.7 5 Sudeste 10 Sur 0 -- -- 48
2019-07-31 10:00:00 18.3 4 Sur 7 Sudoeste 0 -- -- 59
2019-07-31 09:00:00 15.8 2 Noroeste 7 Noroeste 0 -- -- 69
2019-07-31 08:00:00 13.6 3 Oeste 12 Noroeste 0 -- -- 75
2019-07-31 07:00:00 13.2 0 Calma 11 Noroeste 0 -- -- 75
2019-07-31 06:00:00 14 2 Noroeste 12 Norte 0 -- -- 71
2019-07-31 05:00:00 14.4 8 Noroeste 15 Norte 0 -- -- 71
2019-07-31 04:00:00 15.2 10 Noroeste 16 Noroeste 0 -- -- 68
2019-07-31 03:00:00 15.8 9 Norte 14 Norte 0 -- -- 66
2019-07-31 02:00:00 17 10 Noroeste 13 Noroeste 0 -- -- 61
2019-07-31 01:00:00 18 9 Noroeste 16 Oeste 0 -- -- 58
2019-07-31 00:00:00 19.2 8 Noroeste 17 Oeste 0 -- -- 55
2019-07-30 23:00:00 20.7 10 Oeste 17 Sudoeste 0 -- -- 50
2019-07-30 22:00:00 22.7 10 Sudoeste 18 Oeste 0 -- -- 45
2019-07-30 21:00:00 25.6 16 Oeste 27 Oeste 0 -- -- 40
2019-07-30 20:00:00 28.7 19 Sudoeste 27 Sudoeste 0 -- -- 33
2019-07-30 19:00:00 29.3 17 Sur 30 Sudeste 0 -- -- 30
2019-07-30 18:00:00 29.9 19 Sudeste 36 Sudeste 0 -- -- 29
2019-07-30 17:00:00 30.7 20 Sur 36 Sudeste 0 -- -- 29
2019-07-30 16:00:00 28.9 26 Sudeste 48 Sudeste 0 -- -- 39
2019-07-30 15:00:00 27.6 21 Sudeste 37 Este 0 -- -- 47
2019-07-30 14:00:00 27.2 25 Sudeste 38 Sudeste 0 -- -- 50
2019-07-30 13:00:00 26.8 28 Sudeste 37 Sudeste 0 -- -- 52
2019-07-30 12:00:00 27 19 Sudeste 27 Sudeste 0 -- -- 53
2019-07-30 11:00:00 25.6 15 Sudeste 19 Sudeste 0 -- -- 53
2019-07-30 10:00:00 23.9 5 Sudeste 12 Sudeste 0 -- -- 55
2019-07-30 09:00:00 21 5 Oeste 12 Oeste 0 -- -- 63
2019-07-30 08:00:00 18.5 6 Noroeste 10 Oeste 0 -- -- 67
2019-07-30 07:00:00 18.7 6 Noroeste 12 Norte 0 -- -- 62
2019-07-30 06:00:00 18.8 5 Noroeste 10 Oeste 0 -- -- 61
2019-07-30 05:00:00 19.4 9 Oeste 12 Noroeste 0 -- -- 59
2019-07-30 04:00:00 19.8 7 Oeste 11 Oeste 0 -- -- 56
2019-07-30 03:00:00 19.8 9 Oeste 12 Oeste 0 -- -- 55
2019-07-30 02:00:00 20.5 5 Noroeste 11 Noroeste 0 -- -- 52
2019-07-30 01:00:00 21.5 6 Oeste 13 Oeste 0 -- -- 49
2019-07-30 00:00:00 22.4 10 Oeste 14 Oeste 0 -- -- 46
2019-07-29 23:00:00 23.9 9 Oeste 14 Oeste 0 -- -- 42
2019-07-29 22:00:00 25.2 13 Oeste 15 Oeste 0 -- -- 40
2019-07-29 21:00:00 29.4 9 Sudeste 20 Sudeste 0 -- -- 30
2019-07-29 20:00:00 30.7 15 Sudeste 26 Sudeste 0 -- -- 30
2019-07-29 19:00:00 31.3 15 Sudeste 30 Sudeste 0 -- -- 28
2019-07-29 18:00:00 30.9 23 Sudeste 30 Sudeste 0 -- -- 29
2019-07-29 17:00:00 31.4 19 Sudeste 31 Sudeste 0 -- -- 30
2019-07-29 16:00:00 31 19 Sudeste 26 Sudeste 0 -- -- 29
2019-07-29 15:00:00 30.7 19 Sudeste 26 Este 0 -- -- 30
2019-07-29 14:00:00 30 17 Sudeste 25 Sudeste 0 -- -- 33
2019-07-29 13:00:00 28.5 16 Sudeste 22 Sudeste 0 -- -- 35
2019-07-29 12:00:00 26.5 13 Sudeste 18 Sudeste 0 -- -- 39
2019-07-29 11:00:00 23.5 6 Sudeste 14 Sudeste 0 -- -- 45
2019-07-29 10:00:00 20.3 6 Sudeste 11 Este 0 -- -- 57
2019-07-29 09:00:00 16.7 5 Nordeste 10 Nordeste 0 -- -- 67
2019-07-29 08:00:00 13.6 2 Noroeste 11 Nordeste 0 -- -- 77
2019-07-29 07:00:00 13.3 3 Oeste 12 Norte 0 -- -- 77
2019-07-29 06:00:00 14.2 6 Noroeste 19 Norte 0 -- -- 74
2019-07-29 05:00:00 14.4 6 Oeste 18 Norte 0 -- -- 75
2019-07-29 04:00:00 15.3 7 Noroeste 15 Norte 0 -- -- 70
2019-07-29 03:00:00 16.2 8 Noroeste 18 Norte 0 -- -- 66
2019-07-29 02:00:00 16.9 14 Norte 20 Norte 0 -- -- 64
2019-07-29 01:00:00 18.1 8 Noroeste 11 Norte 0 -- -- 59
2019-07-29 00:00:00 20.2 4 Noroeste 6 Noroeste 0 -- -- 53
2019-07-28 23:00:00 21.3 4 Sur 12 Oeste 0 -- -- 49
2019-07-28 22:00:00 22.8 11 Noroeste 20 Sur 0 -- -- 47
2019-07-28 21:00:00 25.1 14 Sur 31 Sudeste 0 -- -- 38
2019-07-28 20:00:00 26.5 24 Sudeste 34 Sudeste 0 -- -- 36
2019-07-28 19:00:00 27.4 24 Sudeste 34 Sudeste 0 -- -- 35
2019-07-28 18:00:00 27.2 24 Sudeste 35 Sudeste 0 -- -- 35
2019-07-28 17:00:00 27.8 17 Sudeste 30 Sudeste 0 -- -- 33
2019-07-28 16:00:00 27.6 19 Sudeste 30 Sudeste 0 -- -- 34
2019-07-28 15:00:00 27.8 11 Sudeste 26 Sudeste 0 -- -- 31
2019-07-28 14:00:00 27.2 12 Sudeste 24 Sudeste 0 -- -- 29
2019-07-28 13:00:00 25.5 9 Sur 19 Sur 0 -- -- 31
2019-07-28 12:00:00 23.6 6 Nordeste 14 Nordeste 0 -- -- 35
2019-07-28 11:00:00 21.5 6 Sudeste 14 Sudeste 0 -- -- 44
2019-07-28 10:00:00 19 8 Sudeste 14 Sudeste 0 -- -- 58
2019-07-28 09:00:00 16.1 3 Oeste 12 Este 0 -- -- 63
2019-07-28 08:00:00 13.4 2 Oeste 28 Oeste 0 -- -- 71
2019-07-28 07:00:00 13.8 18 Oeste 29 Oeste 0 -- -- 68
2019-07-28 06:00:00 13.9 5 Oeste 29 Oeste 0 -- -- 69
2019-07-28 05:00:00 14.7 17 Oeste 26 Oeste 0 -- -- 63
2019-07-28 04:00:00 15.2 17 Oeste 34 Oeste 0 -- -- 62
2019-07-28 03:00:00 16.1 11 Noroeste 27 Oeste 0 -- -- 58
2019-07-28 02:00:00 16.4 23 Oeste 28 Oeste 0 -- -- 58
2019-07-28 01:00:00 17.1 21 Oeste 30 Noroeste 0 -- -- 58
2019-07-28 00:00:00 18.2 22 Noroeste 32 Noroeste 0 -- -- 55
2019-07-27 23:00:00 18.6 24 Noroeste 33 Noroeste 0 -- -- 57
2019-07-26 12:00:00 -- -- -- -- -- -- -- -- --
2019-07-26 11:00:00 27.8 6 Sur 12 Este 0 -- -- 47
2019-07-26 10:00:00 25.4 2 Sur 12 Oeste 0 -- -- 57
2019-07-26 09:00:00 22.5 4 Noroeste 13 Norte 0 -- -- 65
2019-07-26 08:00:00 21.3 5 Noroeste 11 Oeste 0 -- -- 66
2019-07-26 07:00:00 21.2 8 Oeste 11 Oeste 0 -- -- 65
2019-07-26 06:00:00 21.4 5 Noroeste 10 Oeste 0 -- -- 64
2019-07-26 05:00:00 21.7 7 Oeste 13 Noroeste 0 -- -- 63
2019-07-26 04:00:00 21.5 7 Noroeste 13 Norte 0 -- -- 64
2019-07-26 03:00:00 22 9 Norte 13 Norte 0 -- -- 64
2019-07-26 02:00:00 22.9 10 Oeste 15 Norte 0 -- -- 59
2019-07-26 01:00:00 24.2 11 Noroeste 14 Norte 0 -- -- 56
2019-07-26 00:00:00 26 5 Nordeste 12 Sudeste 0 -- -- 51
2019-07-25 23:00:00 26.6 7 Sudoeste 12 Noroeste 0 -- -- 49
2019-07-25 22:00:00 29 4 Este 19 Sudeste 0 -- -- 44
2019-07-25 21:00:00 30.2 14 Este 54 Sur 0 -- -- 43
2019-07-25 20:00:00 33.2 27 Sur 45 Sur 0 -- -- 36
2019-07-25 19:00:00 35.9 14 Sur 28 Sur 0 -- -- 23
2019-07-25 18:00:00 36.3 19 Sur 36 Sur 0 -- -- 25
2019-07-25 17:00:00 36.9 21 Sudeste 31 Sudeste 0 -- -- 23
2019-07-25 16:00:00 37.1 17 Sudeste 32 Sur 0 -- -- 22
2019-07-25 15:00:00 36.9 14 Sudeste 24 Sur 0 -- -- 23
2019-07-25 14:00:00 36.2 14 Sudeste 22 Sudeste 0 -- -- 26
2019-07-25 13:00:00 34.8 12 Sudeste 21 Sudeste 0 -- -- 29
2019-07-25 12:00:00 32.9 10 Sudeste 14 Sur 0 -- -- 32
2019-07-25 11:00:00 30.1 5 Sudeste 10 Sudeste 0 -- -- 36
2019-07-25 10:00:00 26.1 3 Sudoeste 6 Sur 0 -- -- 43
2019-07-25 09:00:00 22.3 3 Oeste 9 Noroeste 0 -- -- 50
2019-07-25 08:00:00 19.5 8 Oeste 15 Noroeste 0 -- -- 57
2019-07-25 07:00:00 19.6 3 Oeste 7 Oeste 0 -- -- 56
2019-07-25 06:00:00 20.3 5 Norte 10 Oeste 0 -- -- 55
2019-07-25 05:00:00 21 5 Oeste 9 Noroeste 0 -- -- 51
2019-07-25 04:00:00 21.7 5 Noroeste 15 Norte 0 -- -- 49
2019-07-25 03:00:00 22.6 5 Noroeste 14 Noroeste 0 -- -- 47
2019-07-25 02:00:00 23.3 7 Noroeste 15 Noroeste 0 -- -- 45
2019-07-25 01:00:00 24.1 11 Noroeste 16 Norte 0 -- -- 45
2019-07-25 00:00:00 26.4 14 Norte 17 Norte 0 -- -- 37
2019-07-24 23:00:00 28.4 3 Sudoeste 12 Nordeste 0 -- -- 34
2019-07-24 22:00:00 30 7 Norte 11 Sudeste 0 -- -- 31
2019-07-24 21:00:00 32.3 4 Sudeste 22 Sur 0 -- -- 26
2019-07-24 20:00:00 34.5 14 Sur 25 Sudeste 0 -- -- 20
2019-07-24 19:00:00 36.3 18 Sudeste 29 Sur 0 -- -- 23
2019-07-24 18:00:00 37.7 15 Sur 32 Sudeste 0 -- -- 19
2019-07-24 17:00:00 38.3 15 Sur 31 Sudeste 0 -- -- 18
2019-07-24 16:00:00 38.1 20 Sudeste 37 Sudeste 0 -- -- 18
2019-07-24 15:00:00 37.5 18 Sudeste 32 Sudeste 0 -- -- 23
2019-07-24 14:00:00 37.2 18 Sudeste 23 Sudeste 0 -- -- 22
2019-07-24 13:00:00 35.6 15 Sudeste 19 Sudeste 0 -- -- 27
2019-07-24 12:00:00 32.9 10 Sudeste 16 Sudeste 0 -- -- 28
2019-07-24 11:00:00 29.8 5 Sur 10 Sudeste 0 -- -- 33
2019-07-24 10:00:00 26.5 3 Sudoeste 8 Nordeste 0 -- -- 39
2019-07-24 09:00:00 22.5 3 Oeste 8 Noroeste 0 -- -- 47
2019-07-24 08:00:00 19.4 5 Noroeste 13 Nordeste 0 -- -- 53
2019-07-24 07:00:00 20.1 3 Noroeste 8 Norte 0 -- -- 49
2019-07-24 06:00:00 20.6 4 Noroeste 10 Oeste 0 -- -- 48
2019-07-24 05:00:00 21.2 8 Noroeste 17 Noroeste 0 -- -- 47
2019-07-24 04:00:00 21.6 10 Noroeste 19 Oeste 0 -- -- 46
2019-07-24 03:00:00 22.6 7 Oeste 12 Oeste 0 -- -- 45
2019-07-24 02:00:00 23.2 8 Noroeste 14 Oeste 0 -- -- 44
2019-07-24 01:00:00 24.3 11 Oeste 21 Oeste 0 -- -- 42
2019-07-24 00:00:00 25.7 8 Noroeste 16 Oeste 0 -- -- 39